Terminal Aerodrome Forecast
Issued by NWS Wakefield, VA

Home | Current Version | Previous Version | Text Only | Print | Product List | Glossary On
Versions: 1 2 3 4 5 6 7 8 9 10 11 12 13 14 15 16 17 18 19
328
FTUS41 KAKQ 232351 RRA
TAFSBY
TAF
KSBY 232351Z 2400/2424 14012KT P6SM BKN050
     FM240600 17014G22KT 6SM SHRA OVC040 WS020/17045KT
     FM240900 18014G22KT 4SM SHRA BR OVC020
     FM241400 18015G23KT 5SM -SHRA OVC025
     FM241700 19015G23KT 6SM -SHRA BKN040
     FM242000 19012KT P6SM BKN040=

USA.gov is the U.S. government's official web portal to all federal, state and local government web resources and services.